Time;durP1;ratioP1;P1;durP2;ratioP2;P2;SDS_P1;SDS_P2;PMS_P1;PMS_P2;Temp;Humidity;BMP_temperature;BMP_pressure;BME280_temperature;BME280_humidity;BME280_pressure;Samples;Min_cycle;Max_cycle;Signal;HPM_P1;HPM_P2
2022/04/18 00:01:11;;;;;;;;;;;12.70;99.90;;;;;;4947787;28;19914;-73
2022/04/18 00:03:37;;;;;;;;;;;12.70;99.90;;;;;;4953479;29;19921;-74
2022/04/18 00:06:03;;;;;;;;;;;12.80;99.90;;;;;;4945227;28;19926;-74
2022/04/18 00:08:28;;;;;;;;;;;12.90;99.90;;;;;;4951024;28;20005;-73
2022/04/18 00:10:54;;;;;;;;;;;12.90;99.90;;;;;;4946794;28;19915;-73
2022/04/18 00:13:19;;;;;;;;;;;13.00;99.90;;;;;;4953971;29;20005;-73
2022/04/18 00:15:45;;;;;;;;;;;13.00;99.90;;;;;;4950802;29;19914;-73
2022/04/18 00:18:10;;;;;;;;;;;12.90;99.90;;;;;;4948741;29;19925;-72
2022/04/18 00:20:36;;;;;;;;;;;12.70;99.90;;;;;;4948867;28;20383;-74
2022/04/18 00:23:01;;;;;;;;;;;12.70;99.90;;;;;;4945925;28;19929;-73
2022/04/18 00:25:27;;;;;;;;;;;12.60;99.90;;;;;;4950249;28;19961;-73
2022/04/18 00:27:53;;;;;;;;;;;12.40;99.90;;;;;;4953510;29;20009;-74
2022/04/18 00:30:18;;;;;;;;;;;12.20;99.90;;;;;;4955214;29;19914;-74
2022/04/18 00:32:44;;;;;;;;;;;12.20;99.90;;;;;;4954081;29;20113;-73
2022/04/18 00:35:09;;;;;;;;;;;12.20;99.90;;;;;;4952680;28;19977;-74
2022/04/18 00:37:36;;;;;;;;;;;12.20;99.90;;;;;;4957552;29;20392;-73
2022/04/18 00:40:02;;;;;;;;;;;12.00;99.90;;;;;;4952216;29;20452;-73
2022/04/18 00:42:28;;;;;;;;;;;11.90;99.90;;;;;;4951566;28;20356;-74
2022/04/18 00:44:54;;;;;;;;;;;11.90;99.90;;;;;;4955705;29;19918;-74
2022/04/18 00:47:19;;;;;;;;;;;11.70;99.90;;;;;;4956803;28;19923;-73
2022/04/18 00:49:45;;;;;;;;;;;11.60;99.90;;;;;;4956993;29;20288;-75
2022/04/18 00:52:11;;;;;;;;;;;11.50;99.90;;;;;;4952322;29;19915;-74
2022/04/18 00:54:37;;;;;;;;;;;11.60;99.90;;;;;;4954371;28;19915;-74
2022/04/18 00:57:03;;;;;;;;;;;11.50;99.90;;;;;;4955947;28;19929;-74
2022/04/18 00:59:30;;;;;;;;;;;11.50;99.90;;;;;;4950602;28;19923;-73
2022/04/18 01:01:56;;;;;;;;;;;11.40;99.90;;;;;;4954211;29;20356;-74
2022/04/18 01:04:21;;;;;;;;;;;11.30;99.90;;;;;;4953062;29;19915;-74
2022/04/18 01:06:47;;;;;;;;;;;11.20;99.90;;;;;;4950892;28;20369;-74
2022/04/18 01:09:13;;;;;;;;;;;11.00;99.90;;;;;;4949294;29;19955;-74
2022/04/18 01:11:38;;;;;;;;;;;11.00;99.90;;;;;;4948096;28;19915;-74
2022/04/18 01:14:04;;;;;;;;;;;10.90;99.90;;;;;;4953319;29;19914;-76
2022/04/18 01:16:30;;;;;;;;;;;10.90;99.90;;;;;;4950295;28;20224;-74
2022/04/18 01:18:57;;;;;;;;;;;10.90;99.90;;;;;;4947052;28;19923;-73
2022/04/18 01:21:23;;;;;;;;;;;10.90;99.90;;;;;;4950615;29;19970;-73
2022/04/18 01:23:48;;;;;;;;;;;11.00;99.90;;;;;;4954753;29;19914;-72
2022/04/18 01:28:58;;;;;;;;;;;11.00;99.90;;;;;;4955095;29;19973;-73
2022/04/18 01:31:24;;;;;;;;;;;11.00;99.90;;;;;;4953606;28;20373;-72
2022/04/18 01:33:50;;;;;;;;;;;11.00;99.90;;;;;;4955166;28;20316;-74
2022/04/18 01:36:15;;;;;;;;;;;11.10;99.90;;;;;;4943751;29;19954;-72
2022/04/18 01:38:41;;;;;;;;;;;11.20;99.90;;;;;;4951000;29;19914;-74
2022/04/18 01:41:07;;;;;;;;;;;11.20;99.90;;;;;;4970913;28;20294;-73
2022/04/18 01:43:32;;;;;;;;;;;11.10;99.90;;;;;;4949820;28;19969;-74
2022/04/18 01:45:58;;;;;;;;;;;11.20;99.90;;;;;;4950313;29;19942;-74
2022/04/18 01:48:23;;;;;;;;;;;11.10;99.90;;;;;;4943141;29;20017;-73
2022/04/18 01:50:49;;;;;;;;;;;11.10;99.90;;;;;;4951283;28;19914;-73
2022/04/18 01:53:15;;;;;;;;;;;11.00;99.90;;;;;;4954025;29;19922;-73
2022/04/18 01:55:40;;;;;;;;;;;11.00;99.90;;;;;;4952984;28;19915;-74
2022/04/18 01:58:06;;;;;;;;;;;10.90;99.90;;;;;;4953912;29;19922;-74
2022/04/18 02:00:32;;;;;;;;;;;10.90;99.90;;;;;;4956136;28;19999;-71
2022/04/18 02:02:58;;;;;;;;;;;10.80;99.90;;;;;;4955359;28;19919;-74
2022/04/18 02:05:25;;;;;;;;;;;10.80;99.90;;;;;;4948668;28;19914;-73
2022/04/18 02:07:50;;;;;;;;;;;10.80;99.90;;;;;;4957411;28;19922;-74
2022/04/18 02:10:16;;;;;;;;;;;10.70;99.90;;;;;;4953195;29;19949;-73
2022/04/18 02:12:41;;;;;;;;;;;10.70;99.90;;;;;;4951871;29;19972;-73
2022/04/18 02:15:07;;;;;;;;;;;10.60;99.90;;;;;;4953156;28;19937;-73
2022/04/18 02:17:33;;;;;;;;;;;10.60;99.90;;;;;;4952809;29;20261;-73
2022/04/18 02:19:58;;;;;;;;;;;10.60;99.90;;;;;;4948326;29;19921;-73
2022/04/18 02:22:24;;;;;;;;;;;10.70;99.90;;;;;;4947457;28;20029;-73
2022/04/18 02:24:50;;;;;;;;;;;10.70;99.90;;;;;;4949813;29;20679;-74
2022/04/18 02:27:16;;;;;;;;;;;10.70;99.90;;;;;;4950356;29;19919;-74
2022/04/18 02:29:42;;;;;;;;;;;10.70;99.90;;;;;;4947276;28;19915;-73
2022/04/18 02:34:53;;;;;;;;;;;10.70;99.90;;;;;;4947670;29;19922;-75
2022/04/18 02:37:18;;;;;;;;;;;10.60;99.90;;;;;;4946017;28;20373;-73
2022/04/18 02:39:44;;;;;;;;;;;10.60;99.90;;;;;;4952429;29;19990;-73
2022/04/18 02:42:09;;;;;;;;;;;10.60;99.90;;;;;;4953264;28;19938;-73
2022/04/18 02:44:35;;;;;;;;;;;10.50;99.90;;;;;;4946439;28;20436;-72
2022/04/18 02:47:00;;;;;;;;;;;10.60;99.90;;;;;;4952682;28;19921;-72
2022/04/18 02:49:26;;;;;;;;;;;10.50;99.90;;;;;;4953207;28;19923;-72
2022/04/18 02:51:51;;;;;;;;;;;10.60;99.90;;;;;;4943387;28;19915;-72
2022/04/18 02:54:17;;;;;;;;;;;10.60;99.90;;;;;;4952569;29;19914;-72
2022/04/18 02:56:43;;;;;;;;;;;10.60;99.90;;;;;;4953275;29;19919;-73
2022/04/18 02:59:08;;;;;;;;;;;10.60;99.90;;;;;;4952173;29;20372;-73
2022/04/18 03:01:34;;;;;;;;;;;10.60;99.90;;;;;;4951775;28;19936;-74
2022/04/18 03:03:59;;;;;;;;;;;10.70;99.90;;;;;;4948372;29;19937;-73
2022/04/18 03:06:25;;;;;;;;;;;10.60;99.90;;;;;;4953276;28;19914;-72
2022/04/18 03:08:50;;;;;;;;;;;10.60;99.90;;;;;;4953977;28;19923;-72
2022/04/18 03:11:16;;;;;;;;;;;10.60;99.90;;;;;;4951823;29;19915;-73
2022/04/18 03:13:44;;;;;;;;;;;10.50;99.90;;;;;;4954563;28;19918;-73
2022/04/18 03:16:10;;;;;;;;;;;10.50;99.90;;;;;;4953054;28;19932;-73
2022/04/18 03:18:36;;;;;;;;;;;10.40;99.90;;;;;;4951684;28;19914;-74
2022/04/18 03:21:03;;;;;;;;;;;10.40;99.90;;;;;;4949122;29;20321;-72
2022/04/18 03:23:28;;;;;;;;;;;10.40;99.90;;;;;;4954153;28;19968;-72
2022/04/18 03:25:54;;;;;;;;;;;10.40;99.90;;;;;;4951942;28;20013;-74
2022/04/18 03:28:20;;;;;;;;;;;10.40;99.90;;;;;;4952705;28;19926;-72
2022/04/18 03:30:45;;;;;;;;;;;10.30;99.90;;;;;;4947977;29;19914;-73
2022/04/18 03:33:11;;;;;;;;;;;10.40;99.90;;;;;;4946894;29;19915;-71
2022/04/18 03:35:37;;;;;;;;;;;10.40;99.90;;;;;;4949319;29;19922;-72
2022/04/18 03:40:46;;;;;;;;;;;10.50;99.90;;;;;;4950793;28;20384;-73
2022/04/18 03:43:12;;;;;;;;;;;10.50;99.90;;;;;;4948081;28;20579;-72
2022/04/18 03:45:37;;;;;;;;;;;10.50;99.90;;;;;;4946021;29;19914;-72
2022/04/18 03:48:03;;;;;;;;;;;10.60;99.90;;;;;;4949730;29;19947;-72
2022/04/18 03:50:30;;;;;;;;;;;10.60;99.90;;;;;;4944684;28;20548;-73
2022/04/18 03:52:55;;;;;;;;;;;10.60;99.90;;;;;;4943789;29;19915;-72
2022/04/18 03:55:21;;;;;;;;;;;10.50;99.90;;;;;;4953254;29;19919;-73
2022/04/18 03:57:46;;;;;;;;;;;10.50;99.90;;;;;;4950485;28;19914;-73
2022/04/18 04:00:12;;;;;;;;;;;10.40;99.90;;;;;;4948118;28;19969;-73
2022/04/18 04:02:38;;;;;;;;;;;10.40;99.90;;;;;;4965141;28;19914;-73
2022/04/18 04:05:04;;;;;;;;;;;10.30;99.90;;;;;;4953640;29;20347;-74
2022/04/18 04:07:29;;;;;;;;;;;10.20;99.90;;;;;;4946669;28;19923;-73
2022/04/18 04:09:55;;;;;;;;;;;10.10;99.90;;;;;;4944583;28;19923;-72
2022/04/18 04:12:24;;;;;;;;;;;10.00;99.90;;;;;;4947787;29;20001;-73
2022/04/18 04:14:53;;;;;;;;;;;10.00;99.90;;;;;;4948117;28;19954;-72
2022/04/18 04:17:19;;;;;;;;;;;10.00;99.90;;;;;;4956693;29;19933;-74
2022/04/18 04:19:45;;;;;;;;;;;10.00;99.90;;;;;;4951764;29;20012;-72
2022/04/18 04:22:10;;;;;;;;;;;9.90;99.90;;;;;;4953537;29;19919;-74
2022/04/18 04:24:36;;;;;;;;;;;9.90;99.90;;;;;;4950244;28;19921;-72
2022/04/18 04:27:02;;;;;;;;;;;9.80;99.90;;;;;;4955834;29;20696;-72
2022/04/18 04:29:27;;;;;;;;;;;9.90;99.90;;;;;;4961633;29;20403;-73
2022/04/18 04:31:53;;;;;;;;;;;9.80;99.90;;;;;;4952469;29;19914;-74
2022/04/18 04:34:18;;;;;;;;;;;9.80;99.90;;;;;;4962616;29;20415;-72
2022/04/18 04:36:44;;;;;;;;;;;9.80;99.90;;;;;;4959049;29;20412;-74
2022/04/18 04:39:10;;;;;;;;;;;9.80;99.90;;;;;;4958271;28;19930;-73
2022/04/18 04:41:36;;;;;;;;;;;9.70;99.90;;;;;;4961214;29;20059;-72
2022/04/18 04:44:02;;;;;;;;;;;9.70;99.90;;;;;;4955353;28;19919;-73
2022/04/18 04:46:28;;;;;;;;;;;9.70;99.90;;;;;;4945888;28;19974;-74
2022/04/18 04:48:53;;;;;;;;;;;9.60;99.90;;;;;;4954736;28;19922;-73
2022/04/18 04:51:19;;;;;;;;;;;9.60;99.90;;;;;;4944870;29;20384;-73
2022/04/18 04:53:45;;;;;;;;;;;9.60;99.90;;;;;;4950730;29;20408;-74
2022/04/18 04:56:10;;;;;;;;;;;9.60;99.90;;;;;;4956308;28;19914;-72
2022/04/18 04:58:36;;;;;;;;;;;9.50;99.90;;;;;;4950668;28;19922;-73
2022/04/18 05:01:01;;;;;;;;;;;9.50;99.90;;;;;;4953772;28;19914;-72
2022/04/18 05:03:30;;;;;;;;;;;9.50;99.90;;;;;;4948261;28;20380;-73
2022/04/18 05:05:55;;;;;;;;;;;9.50;99.90;;;;;;4953910;28;19910;-72
2022/04/18 05:08:21;;;;;;;;;;;9.60;99.90;;;;;;4953167;28;20445;-74
2022/04/18 05:10:46;;;;;;;;;;;9.60;99.90;;;;;;4952797;29;20320;-73
2022/04/18 05:13:13;;;;;;;;;;;9.50;99.90;;;;;;4953823;28;19918;-72
2022/04/18 05:15:38;;;;;;;;;;;9.50;99.90;;;;;;4948503;29;19914;-73
2022/04/18 05:18:04;;;;;;;;;;;9.50;99.90;;;;;;4953676;28;19977;-73
2022/04/18 05:20:29;;;;;;;;;;;9.50;99.90;;;;;;4951936;28;20436;-72
2022/04/18 05:22:55;;;;;;;;;;;9.60;99.90;;;;;;4954905;29;19934;-74
2022/04/18 05:25:21;;;;;;;;;;;9.60;99.90;;;;;;4952923;28;19915;-73
2022/04/18 05:27:47;;;;;;;;;;;9.60;99.90;;;;;;4954417;29;20115;-73
2022/04/18 05:30:12;;;;;;;;;;;9.70;99.90;;;;;;4947194;29;20009;-73
2022/04/18 05:32:38;;;;;;;;;;;9.60;99.90;;;;;;4949553;29;20005;-73
2022/04/18 05:35:05;;;;;;;;;;;9.70;99.90;;;;;;4951915;28;19974;-73
2022/04/18 05:37:30;;;;;;;;;;;9.70;99.90;;;;;;4949915;29;19977;-73
2022/04/18 05:39:56;;;;;;;;;;;9.70;99.90;;;;;;4951183;29;20379;-73
2022/04/18 05:42:23;;;;;;;;;;;9.80;99.90;;;;;;4947431;28;19914;-73
2022/04/18 05:44:48;;;;;;;;;;;9.80;99.90;;;;;;4946634;28;20005;-74
2022/04/18 05:47:14;;;;;;;;;;;9.90;99.90;;;;;;4947020;28;20351;-71
2022/04/18 05:49:39;;;;;;;;;;;10.00;99.90;;;;;;4953956;29;20496;-72
2022/04/18 05:52:05;;;;;;;;;;;10.20;99.90;;;;;;4948014;29;20409;-73
2022/04/18 05:54:31;;;;;;;;;;;10.20;99.90;;;;;;4950908;28;20793;-72
2022/04/18 05:56:57;;;;;;;;;;;10.30;99.90;;;;;;4952677;29;20325;-74
2022/04/18 05:59:22;;;;;;;;;;;10.30;99.90;;;;;;4949793;28;20398;-72
2022/04/18 06:01:47;;;;;;;;;;;10.50;99.90;;;;;;4948842;28;19942;-74
2022/04/18 06:04:13;;;;;;;;;;;10.60;99.90;;;;;;4953858;29;19915;-72
2022/04/18 06:06:39;;;;;;;;;;;10.70;99.90;;;;;;4943897;29;20006;-73
2022/04/18 06:09:05;;;;;;;;;;;10.90;99.90;;;;;;4953276;28;19930;-73
2022/04/18 06:11:30;;;;;;;;;;;10.90;99.90;;;;;;4950603;29;20178;-72
2022/04/18 06:13:56;;;;;;;;;;;10.90;99.90;;;;;;4955125;28;19914;-72
2022/04/18 06:16:21;;;;;;;;;;;10.90;99.90;;;;;;4946624;28;19966;-71
2022/04/18 06:18:47;;;;;;;;;;;10.80;99.90;;;;;;4944916;29;19914;-70
2022/04/18 06:21:13;;;;;;;;;;;10.80;99.90;;;;;;4951949;28;19915;-73
2022/04/18 06:23:38;;;;;;;;;;;10.90;99.90;;;;;;4950244;28;19911;-71
2022/04/18 06:26:04;;;;;;;;;;;11.00;99.90;;;;;;4951551;29;19914;-71
2022/04/18 06:28:29;;;;;;;;;;;11.00;99.90;;;;;;4953437;28;19969;-71
2022/04/18 06:30:55;;;;;;;;;;;11.10;99.90;;;;;;4946087;28;19928;-71
2022/04/18 06:33:20;;;;;;;;;;;11.20;99.90;;;;;;4953625;28;19921;-71
2022/04/18 06:35:46;;;;;;;;;;;11.30;99.90;;;;;;4951517;28;19910;-73
2022/04/18 06:38:12;;;;;;;;;;;11.30;99.90;;;;;;4948618;28;19918;-73
2022/04/18 06:40:37;;;;;;;;;;;11.40;99.90;;;;;;4951269;28;20373;-73
2022/04/18 06:43:03;;;;;;;;;;;11.40;99.90;;;;;;4952485;29;20364;-71
2022/04/18 06:45:30;;;;;;;;;;;11.50;99.90;;;;;;4949611;28;19977;-73
2022/04/18 06:47:56;;;;;;;;;;;11.60;99.90;;;;;;4952771;28;19923;-73
2022/04/18 06:50:21;;;;;;;;;;;11.50;99.90;;;;;;4944780;29;19938;-72
2022/04/18 06:52:49;;;;;;;;;;;11.50;99.90;;;;;;4949121;28;19915;-72
2022/04/18 06:55:15;;;;;;;;;;;11.60;99.90;;;;;;4941675;28;20926;-72
2022/04/18 06:57:41;;;;;;;;;;;11.40;99.90;;;;;;4944980;28;19914;-74
2022/04/18 07:00:07;;;;;;;;;;;11.40;99.90;;;;;;4941393;28;20058;-73
2022/04/18 07:02:32;;;;;;;;;;;11.30;99.90;;;;;;4949730;29;19922;-73
2022/04/18 07:04:58;;;;;;;;;;;11.20;99.90;;;;;;4944288;29;19937;-72
2022/04/18 07:07:24;;;;;;;;;;;11.20;99.90;;;;;;4950020;28;20535;-73
2022/04/18 07:09:50;;;;;;;;;;;11.10;99.90;;;;;;4951143;28;19914;-72
2022/04/18 07:12:22;;;;;;;;;;;11.10;99.90;;;;;;4944003;28;20292;-73
2022/04/18 07:14:48;;;;;;;;;;;11.10;99.90;;;;;;4951222;28;19914;-75
2022/04/18 07:17:14;;;;;;;;;;;11.10;99.90;;;;;;4949292;28;19961;-74
2022/04/18 07:19:39;;;;;;;;;;;11.10;99.90;;;;;;4947967;28;20283;-72
2022/04/18 07:22:06;;;;;;;;;;;11.10;99.90;;;;;;4951179;28;19914;-73
2022/04/18 07:24:31;;;;;;;;;;;11.00;99.90;;;;;;4941342;28;19923;-74
2022/04/18 07:27:00;;;;;;;;;;;11.10;99.90;;;;;;4945465;28;19957;-72
2022/04/18 07:29:26;;;;;;;;;;;11.20;99.90;;;;;;4945244;28;20054;-74
2022/04/18 07:31:52;;;;;;;;;;;11.20;99.90;;;;;;4944202;28;19914;-74
2022/04/18 07:34:18;;;;;;;;;;;11.40;99.90;;;;;;4946873;29;20340;-72
2022/04/18 07:36:43;;;;;;;;;;;11.40;99.90;;;;;;4951056;28;20356;-73
2022/04/18 07:39:09;;;;;;;;;;;11.40;99.90;;;;;;4957645;29;19922;-73
2022/04/18 07:41:34;;;;;;;;;;;11.40;99.90;;;;;;4953321;28;19923;-73
2022/04/18 07:44:01;;;;;;;;;;;11.50;99.90;;;;;;4950271;28;19915;-71
2022/04/18 07:46:27;;;;;;;;;;;11.60;99.90;;;;;;4950099;28;20369;-72
2022/04/18 07:48:53;;;;;;;;;;;11.70;99.90;;;;;;4954066;29;19929;-71
2022/04/18 07:54:04;;;;;;;;;;;11.90;99.90;;;;;;4974321;28;19924;-73
2022/04/18 07:56:30;;;;;;;;;;;12.10;99.90;;;;;;4957295;28;19915;-74
2022/04/18 07:58:56;;;;;;;;;;;12.20;99.90;;;;;;4955505;29;19922;-73
2022/04/18 08:01:21;;;;;;;;;;;12.20;99.90;;;;;;4965216;28;20300;-73
2022/04/18 08:03:48;;;;;;;;;;;12.30;99.90;;;;;;4956904;28;20435;-73
2022/04/18 08:06:13;;;;;;;;;;;12.60;99.90;;;;;;4951328;28;19914;-74
2022/04/18 08:08:39;;;;;;;;;;;12.60;99.90;;;;;;4951995;28;19922;-74
2022/04/18 08:11:05;;;;;;;;;;;12.90;99.90;;;;;;4944402;29;19915;-72
2022/04/18 08:13:31;;;;;;;;;;;13.20;99.90;;;;;;4943337;28;20276;-72
2022/04/18 08:15:57;;;;;;;;;;;13.30;99.90;;;;;;4947845;29;19915;-73
2022/04/18 08:18:23;;;;;;;;;;;13.20;99.90;;;;;;4952291;28;19921;-72
2022/04/18 08:20:48;;;;;;;;;;;13.40;99.90;;;;;;4948841;28;19973;-71
2022/04/18 08:23:14;;;;;;;;;;;13.70;99.90;;;;;;4953300;29;19919;-72
2022/04/18 08:25:40;;;;;;;;;;;13.40;99.90;;;;;;4953468;29;19923;-72
2022/04/18 08:28:05;;;;;;;;;;;13.40;99.90;;;;;;4954582;28;19926;-72
2022/04/18 08:30:31;;;;;;;;;;;13.60;99.90;;;;;;4950176;29;19914;-72
2022/04/18 08:32:57;;;;;;;;;;;13.70;99.90;;;;;;4946805;28;19950;-73
2022/04/18 08:35:22;;;;;;;;;;;13.50;99.90;;;;;;4947884;28;21492;-73
2022/04/18 08:37:48;;;;;;;;;;;13.70;99.90;;;;;;4950944;29;19989;-73
2022/04/18 08:40:14;;;;;;;;;;;13.70;99.90;;;;;;4937579;28;19971;-72
2022/04/18 08:42:40;;;;;;;;;;;13.50;99.90;;;;;;4931192;29;19919;-75
2022/04/18 08:45:07;;;;;;;;;;;13.60;99.90;;;;;;4923595;29;20001;-74
2022/04/18 08:53:02;;;;;;;;;;;13.20;99.90;;;;;;4921438;29;19922;-73
2022/04/18 08:55:31;;;;;;;;;;;13.40;99.90;;;;;;4931838;29;20100;-72
2022/04/18 08:57:59;;;;;;;;;;;13.60;99.90;;;;;;4928898;29;19915;-74
2022/04/18 09:00:27;;;;;;;;;;;13.90;99.90;;;;;;4931895;29;20440;-73
2022/04/18 09:02:53;;;;;;;;;;;14.10;99.90;;;;;;4927339;29;19931;-73
2022/04/18 09:05:19;;;;;;;;;;;14.00;99.90;;;;;;4925641;29;20296;-73
2022/04/18 09:07:55;;;;;;;;;;;13.80;99.90;;;;;;4913604;29;19942;-72
2022/04/18 09:10:25;;;;;;;;;;;13.80;99.90;;;;;;4933877;29;19918;-73
2022/04/18 09:12:51;;;;;;;;;;;13.60;99.90;;;;;;4928743;29;20416;-74
2022/04/18 09:15:34;;;;;;;;;;;13.60;99.90;;;;;;4935269;29;20003;-73
2022/04/18 09:18:06;;;;;;;;;;;13.60;99.90;;;;;;4936482;29;19922;-74
2022/04/18 09:20:39;;;;;;;;;;;13.50;99.90;;;;;;4932066;29;19915;-73
2022/04/18 09:23:05;;;;;;;;;;;13.40;99.90;;;;;;4918803;29;19923;-73
2022/04/18 09:25:36;;;;;;;;;;;13.40;99.90;;;;;;4935095;29;19930;-74
2022/04/18 09:28:02;;;;;;;;;;;13.50;99.90;;;;;;4937709;29;19919;-74
2022/04/18 09:30:31;;;;;;;;;;;13.70;99.90;;;;;;4932061;29;19915;-75
2022/04/18 09:33:00;;;;;;;;;;;13.70;99.90;;;;;;4920482;29;19921;-73
2022/04/18 09:35:26;;;;;;;;;;;13.90;99.90;;;;;;4929309;29;19914;-74
2022/04/18 09:37:53;;;;;;;;;;;14.00;99.90;;;;;;4919910;29;20414;-73
2022/04/18 09:40:22;;;;;;;;;;;14.30;99.90;;;;;;4940498;29;20347;-73
2022/04/18 09:42:50;;;;;;;;;;;14.40;99.90;;;;;;4956623;29;19985;-74
2022/04/18 09:45:17;;;;;;;;;;;14.10;99.90;;;;;;4965325;28;19914;-74
2022/04/18 09:47:43;;;;;;;;;;;14.00;99.90;;;;;;4955092;29;19923;-74
2022/04/18 09:50:58;;;;;;;;;;;14.00;99.90;;;;;;4963772;28;19918;-74
2022/04/18 09:53:04;;;;;;;;;;;14.00;99.90;;;;;;4954779;29;19918;-74
2022/04/18 09:55:30;;;;;;;;;;;14.00;99.90;;;;;;4946222;28;19921;-74
2022/04/18 09:58:01;;;;;;;;;;;14.10;99.90;;;;;;4955415;28;19985;-73
2022/04/18 10:00:26;;;;;;;;;;;14.30;99.90;;;;;;4951361;28;19922;-74
2022/04/18 10:02:52;;;;;;;;;;;14.40;99.90;;;;;;4952697;28;19920;-74
2022/04/18 10:05:19;;;;;;;;;;;14.30;99.90;;;;;;4950674;28;19914;-74
2022/04/18 10:07:45;;;;;;;;;;;14.10;99.90;;;;;;4943640;28;19929;-75
2022/04/18 10:10:14;;;;;;;;;;;14.20;99.90;;;;;;4949924;29;19997;-74
2022/04/18 10:12:40;;;;;;;;;;;14.30;99.90;;;;;;4944764;29;19929;-74
2022/04/18 10:15:07;;;;;;;;;;;14.60;99.90;;;;;;4950111;28;20543;-74
2022/04/18 10:17:35;;;;;;;;;;;14.70;99.90;;;;;;4954572;29;19928;-74
2022/04/18 10:20:27;;;;;;;;;;;14.80;99.90;;;;;;4947211;28;20009;-74
2022/04/18 10:23:03;;;;;;;;;;;14.70;99.90;;;;;;4953766;28;19997;-74
2022/04/18 10:25:47;;;;;;;;;;;14.40;99.90;;;;;;4946051;29;19915;-73
2022/04/18 10:28:17;;;;;;;;;;;14.60;99.90;;;;;;4951311;29;19927;-74
2022/04/18 10:30:53;;;;;;;;;;;14.70;99.90;;;;;;4947480;29;19956;-74
2022/04/18 10:33:19;;;;;;;;;;;14.80;99.90;;;;;;4950700;29;19969;-74
2022/04/18 10:35:52;;;;;;;;;;;15.10;99.90;;;;;;4932216;29;19946;-76
2022/04/18 10:38:20;;;;;;;;;;;15.30;99.90;;;;;;4956603;29;19978;-73
2022/04/18 10:40:46;;;;;;;;;;;15.20;99.90;;;;;;4962075;28;19926;-73
2022/04/18 10:43:13;;;;;;;;;;;15.10;99.80;;;;;;4955055;28;20013;-77
2022/04/18 10:45:40;;;;;;;;;;;14.90;99.90;;;;;;4955577;28;19923;-73
2022/04/18 10:48:06;;;;;;;;;;;15.30;99.40;;;;;;4965124;29;19923;-73
2022/04/18 10:50:35;;;;;;;;;;;15.60;98.50;;;;;;4956074;28;19938;-72
2022/04/18 10:53:06;;;;;;;;;;;15.90;97.50;;;;;;4971467;28;19919;-73
2022/04/18 10:55:31;;;;;;;;;;;15.80;95.80;;;;;;4956015;29;20428;-73
2022/04/18 10:58:10;;;;;;;;;;;15.70;96.00;;;;;;4948355;28;19919;-74
2022/04/18 11:00:47;;;;;;;;;;;15.50;96.10;;;;;;4948499;28;19962;-75
2022/04/18 11:03:13;;;;;;;;;;;15.60;96.40;;;;;;4940365;29;20400;-76
2022/04/18 11:05:39;;;;;;;;;;;15.50;97.00;;;;;;4950839;28;19914;-74
2022/04/18 11:08:21;;;;;;;;;;;15.40;97.60;;;;;;4945506;29;19922;-73
2022/04/18 11:10:47;;;;;;;;;;;15.40;97.20;;;;;;4939410;28;19923;-75
2022/04/18 11:13:13;;;;;;;;;;;15.50;97.00;;;;;;4945603;28;19914;-76
2022/04/18 11:15:38;;;;;;;;;;;15.70;97.30;;;;;;4942224;28;19950;-75
2022/04/18 11:18:08;;;;;;;;;;;15.70;96.00;;;;;;4941100;28;19914;-73
2022/04/18 11:20:35;;;;;;;;;;;15.40;96.40;;;;;;4946069;29;19918;-74
2022/04/18 11:23:22;;;;;;;;;;;15.30;96.80;;;;;;4943945;29;19941;-75
2022/04/18 11:25:58;;;;;;;;;;;15.30;95.90;;;;;;4942983;28;19921;-74
2022/04/18 11:28:30;;;;;;;;;;;15.50;95.10;;;;;;4952298;29;20460;-74
2022/04/18 11:30:55;;;;;;;;;;;15.60;94.30;;;;;;4946783;28;20013;-74
2022/04/18 11:33:21;;;;;;;;;;;15.40;94.50;;;;;;4940180;28;20432;-74
2022/04/18 11:35:48;;;;;;;;;;;15.20;94.60;;;;;;4945314;29;20384;-73
2022/04/18 11:38:13;;;;;;;;;;;15.20;95.00;;;;;;4950550;29;19918;-74
2022/04/18 11:40:40;;;;;;;;;;;15.30;95.00;;;;;;4949177;28;19921;-74
2022/04/18 11:43:12;;;;;;;;;;;15.10;94.50;;;;;;4946105;29;20309;-73
2022/04/18 11:45:38;;;;;;;;;;;15.20;95.40;;;;;;4946582;28;19915;-75
2022/04/18 11:48:04;;;;;;;;;;;15.40;95.10;;;;;;4949725;29;19977;-73
2022/04/18 11:50:30;;;;;;;;;;;15.20;94.40;;;;;;4947336;28;20024;-74
2022/04/18 11:53:03;;;;;;;;;;;15.20;94.50;;;;;;4942331;28;19922;-72
2022/04/18 11:55:29;;;;;;;;;;;15.20;94.70;;;;;;4945464;29;19966;-74
2022/04/18 11:57:58;;;;;;;;;;;15.30;94.00;;;;;;4943328;29;19925;-74
2022/04/18 12:08:44;;;;;;;;;;;15.30;95.20;;;;;;4946381;29;19977;-74
2022/04/18 12:11:13;;;;;;;;;;;15.40;94.70;;;;;;4946607;28;20261;-73
2022/04/18 12:13:44;;;;;;;;;;;15.60;94.50;;;;;;4950008;28;19971;-74
2022/04/18 12:16:10;;;;;;;;;;;15.50;94.30;;;;;;4962644;28;19950;-73
2022/04/18 12:18:35;;;;;;;;;;;15.70;94.30;;;;;;4947538;28;19977;-73
2022/04/18 12:21:01;;;;;;;;;;;15.80;93.90;;;;;;4947506;29;20353;-73
2022/04/18 12:23:27;;;;;;;;;;;15.60;93.30;;;;;;4946771;28;19954;-74
2022/04/18 12:25:53;;;;;;;;;;;15.60;93.40;;;;;;4949146;28;19914;-74
2022/04/18 12:28:20;;;;;;;;;;;15.90;93.00;;;;;;4941178;29;19933;-74
2022/04/18 12:30:46;;;;;;;;;;;16.00;92.90;;;;;;4943032;28;19918;-74
2022/04/18 12:33:19;;;;;;;;;;;15.90;93.40;;;;;;4944407;28;19950;-74
2022/04/18 12:35:54;;;;;;;;;;;16.00;93.30;;;;;;4952003;29;19914;-73
2022/04/18 12:38:30;;;;;;;;;;;16.10;93.30;;;;;;4947865;29;19914;-74
2022/04/18 12:40:56;;;;;;;;;;;16.30;92.60;;;;;;4947372;29;20377;-75
2022/04/18 12:43:26;;;;;;;;;;;16.20;92.10;;;;;;4922478;29;20269;-74
2022/04/18 12:45:56;;;;;;;;;;;16.30;92.50;;;;;;4922890;29;19915;-74
2022/04/18 12:48:25;;;;;;;;;;;16.70;92.60;;;;;;4914084;29;20018;-72
2022/04/18 12:50:51;;;;;;;;;;;16.70;92.10;;;;;;4933207;29;20338;-74
2022/04/18 12:53:18;;;;;;;;;;;16.60;91.70;;;;;;4932423;29;19970;-73
2022/04/18 12:55:43;;;;;;;;;;;16.60;92.10;;;;;;4936347;29;20357;-74
2022/04/18 12:58:16;;;;;;;;;;;16.60;92.00;;;;;;4932960;29;19921;-73
2022/04/18 13:00:44;;;;;;;;;;;16.50;92.20;;;;;;4931883;29;19962;-73
2022/04/18 13:03:09;;;;;;;;;;;16.50;92.30;;;;;;4916097;29;19915;-73
2022/04/18 13:05:44;;;;;;;;;;;16.50;92.20;;;;;;4938453;29;20104;-73
2022/04/18 13:08:10;;;;;;;;;;;16.30;92.10;;;;;;4925139;29;19930;-74
2022/04/18 13:10:37;;;;;;;;;;;16.10;91.60;;;;;;4928414;29;19915;-73
2022/04/18 13:13:07;;;;;;;;;;;16.10;91.70;;;;;;4913622;29;20401;-75
2022/04/18 13:15:33;;;;;;;;;;;16.20;91.50;;;;;;4922182;29;19930;-73
2022/04/18 13:18:04;;;;;;;;;;;16.40;91.60;;;;;;4915147;29;19915;-73
2022/04/18 13:20:30;;;;;;;;;;;16.50;91.80;;;;;;4935068;29;19962;-73
2022/04/18 13:22:56;;;;;;;;;;;16.70;91.60;;;;;;4934000;29;19944;-75
2022/04/18 13:25:21;;;;;;;;;;;17.00;91.30;;;;;;4935159;29;19914;-73
2022/04/18 13:27:47;;;;;;;;;;;16.80;91.10;;;;;;4935006;29;20299;-74
2022/04/18 13:30:13;;;;;;;;;;;16.60;91.60;;;;;;4912638;29;19958;-73
2022/04/18 13:32:39;;;;;;;;;;;16.40;91.60;;;;;;4927621;29;20009;-74
2022/04/18 13:35:04;;;;;;;;;;;16.30;91.80;;;;;;4928682;29;19915;-74
2022/04/18 13:37:30;;;;;;;;;;;16.20;92.00;;;;;;4931872;29;19925;-73
2022/04/18 13:39:56;;;;;;;;;;;16.40;91.90;;;;;;4933798;29;19915;-74
2022/04/18 13:42:21;;;;;;;;;;;16.70;91.80;;;;;;4943243;29;19923;-74
2022/04/18 13:44:47;;;;;;;;;;;16.70;91.70;;;;;;4951293;29;20245;-74
2022/04/18 13:47:13;;;;;;;;;;;16.70;91.90;;;;;;4946917;28;19954;-74
2022/04/18 13:49:40;;;;;;;;;;;16.80;91.40;;;;;;4949054;29;19922;-74
2022/04/18 13:52:09;;;;;;;;;;;16.60;91.40;;;;;;4953381;28;19915;-73
2022/04/18 13:54:39;;;;;;;;;;;16.20;92.10;;;;;;4958609;28;19926;-75
2022/04/18 13:57:08;;;;;;;;;;;16.00;92.70;;;;;;4954724;28;20299;-74
2022/04/18 13:59:34;;;;;;;;;;;15.90;93.30;;;;;;4954281;28;19914;-72
2022/04/18 14:01:59;;;;;;;;;;;15.80;93.40;;;;;;4952776;28;19918;-75
2022/04/18 14:04:25;;;;;;;;;;;15.70;93.80;;;;;;4951915;28;19915;-73
2022/04/18 14:06:51;;;;;;;;;;;15.70;93.80;;;;;;4950045;28;20345;-74
2022/04/18 14:09:17;;;;;;;;;;;15.80;93.90;;;;;;4945508;28;19994;-74
2022/04/18 14:11:43;;;;;;;;;;;15.50;94.30;;;;;;4942577;28;19954;-73
2022/04/18 14:14:08;;;;;;;;;;;15.30;94.80;;;;;;4947378;28;20443;-73
2022/04/18 14:22:03;;;;;;;;;;;15.00;95.70;;;;;;4951333;29;19925;-74
2022/04/18 14:24:29;;;;;;;;;;;14.80;96.00;;;;;;4946323;28;19918;-73
2022/04/18 14:26:54;;;;;;;;;;;14.80;96.80;;;;;;4943827;29;19961;-73
2022/04/18 14:29:20;;;;;;;;;;;14.80;97.10;;;;;;4950761;28;19945;-72
2022/04/18 14:31:46;;;;;;;;;;;14.80;97.30;;;;;;4949579;28;19983;-73
2022/04/18 14:34:11;;;;;;;;;;;15.00;97.30;;;;;;4950800;28;19965;-74
2022/04/18 14:36:37;;;;;;;;;;;14.90;97.60;;;;;;4949347;29;19915;-73
2022/04/18 14:39:03;;;;;;;;;;;15.10;97.60;;;;;;4943471;28;20507;-74
2022/04/18 14:41:29;;;;;;;;;;;15.30;97.20;;;;;;4945444;28;20262;-74
2022/04/18 14:43:55;;;;;;;;;;;15.50;96.70;;;;;;4947247;28;19921;-73
2022/04/18 14:46:20;;;;;;;;;;;15.70;95.90;;;;;;4946937;28;20277;-72